Terminal Aerodrome Forecast
Issued by NWS Sioux Falls, SD

Home | Current Version | Previous Version | Graphics & Text | Print | Product List | Glossary Off
Versions: 1 2 3 4 5 6 7 8 9 10 11

000
FTUS43 KFSD 251720
TAFSUX
TAF
KSUX 251720Z 2518/2618 25008KT P6SM BKN100
     FM252100 19009KT P6SM BKN070
     FM260500 18005KT P6SM BKN100
     FM261200 22006KT P6SM SCT100=

USA.gov is the U.S. government's official web portal to all federal, state and local government web resources and services.